This demonstration page uses our WeatherBlox Daily Observations layout. Learn more.

38.89511, -77.03637

Hourly Observations for February 4, 2015

Temp ( °F °C ) Dew Point ( °F °C ) Humidity (%) Winds ( mph kmh ) Pressure ( in mb ) Visibility ( mi km ) Precip ( " mm )
1:52 am 01:52 Mostly Cloudy 30 -1 19 -7 64 64 S 7 11 30.3 1026 10 16.09344 0 0
2:52 am 02:52 Mostly Cloudy 30 -1 19 -7 64 64 SSW 6 9 30.3 1026 10 16.09344 0 0
3:52 am 03:52 Cloudy 32 0 19 -7 60 60 S 8 13 30.27 1025 10 16.09344 0 0
4:52 am 04:52 Cloudy 30 -1 19 -7 64 64 SSW 5 7 30.24 1024 10 16.09344 0 0
5:52 am 05:52 Mostly Cloudy 30 -1 18 -8 59 59 SSW 6 9 30.27 1025 10 16.09344 0 0
6:52 am 06:52 Mostly Cloudy 30 -1 19 -7 64 64 SSW 7 11 30.27 1025 10 16.09344 0 0
7:52 am 07:52 Mostly Cloudy 34 1 19 -7 56 56 S 6 9 30.24 1024 10 16.09344 0 0
8:52 am 08:52 Mostly Cloudy 36 2 19 -7 52 52 S 7 11 30.24 1024 10 16.09344 0 0
9:52 am 09:52 Mostly Cloudy 37 3 21 -6 52 52 S 8 13 30.24 1024 10 16.09344 0 0
10:52 am 10:52 Cloudy 39 4 21 -6 48 48 SSE 10 17 30.21 1023 10 16.09344 0 0
11:52 am 11:52 Cloudy 43 6 23 -5 46 46 SSE 9 15 30.18 1022 10 16.09344 0 0
12:52 pm 12:52 Cloudy 46 8 23 -5 40 40 SSE 8 13 30.15 1021 10 16.09344 0 0
1:52 pm 13:52 Mostly Cloudy 52 11 25 -4 35 35 S 10 17 30.09 1019 10 16.09344 0 0
2:52 pm 14:52 Cloudy 54 12 25 -4 33 33 S 7 11 30.06 1018 10 16.09344 0 0
3:52 pm 15:52 Cloudy 54 12 27 -3 35 35 S 10 17 30.03 1017 10 16.09344 0 0
4:52 pm 16:52 Cloudy 52 11 27 -3 38 38 S 13 20 30.03 1017 10 16.09344 0 0
5:52 pm 17:52 Mostly Cloudy 48 9 27 -3 43 43 S 10 17 30 1016 10 16.09344 0 0
6:52 pm 18:52 Mostly Cloudy 48 9 27 -3 43 43 S 9 15 30 1016 10 16.09344 0 0
7:52 pm 19:52 Mostly Cloudy 45 7 27 -3 49 49 S 10 17 30 1016 10 16.09344 0 0
8:52 pm 20:52 Cloudy 48 9 23 -5 37 37 SSW 14 22 29.97 1015 10 16.09344 0 0
9:52 pm 21:52 Cloudy 48 9 23 -5 37 37 SSW 15 24 29.97 1015 10 16.09344 0 0
10:52 pm 22:52 Mostly Cloudy 46 8 23 -5 40 40 SSW 10 17 29.94 1014 10 16.09344 0 0
11:52 pm 23:52 Mostly Cloudy 43 6 27 -3 53 53 S 9 15 29.94 1014 10 16.09344 0 0

Powered by AerisWeather